sensor_id;sensor_type;location;lat;lon;timestamp;P1;durP1;ratioP1;P2;durP2;ratioP2
7029;SDS011;3556;53.500;10.176;2023-04-06T00:01:38;5.70;;;5.20;;
7029;SDS011;3556;53.500;10.176;2023-04-06T00:04:04;5.40;;;5.00;;
7029;SDS011;3556;53.500;10.176;2023-04-06T00:06:30;5.50;;;4.73;;
7029;SDS011;3556;53.500;10.176;2023-04-06T00:08:57;5.80;;;5.37;;
7029;SDS011;3556;53.500;10.176;2023-04-06T00:11:23;5.03;;;4.40;;
7029;SDS011;3556;53.500;10.176;2023-04-06T00:13:48;5.30;;;4.80;;
7029;SDS011;3556;53.500;10.176;2023-04-06T00:16:14;5.20;;;4.80;;
7029;SDS011;3556;53.500;10.176;2023-04-06T00:18:40;5.50;;;5.10;;
7029;SDS011;3556;53.500;10.176;2023-04-06T00:21:06;5.27;;;4.97;;
7029;SDS011;3556;53.500;10.176;2023-04-06T00:23:32;13.47;;;5.63;;
7029;SDS011;3556;53.500;10.176;2023-04-06T00:25:57;7.50;;;5.63;;
7029;SDS011;3556;53.500;10.176;2023-04-06T00:28:23;5.97;;;5.40;;
7029;SDS011;3556;53.500;10.176;2023-04-06T00:30:52;6.50;;;5.70;;
7029;SDS011;3556;53.500;10.176;2023-04-06T00:33:19;6.40;;;4.80;;
7029;SDS011;3556;53.500;10.176;2023-04-06T00:35:45;5.20;;;4.80;;
7029;SDS011;3556;53.500;10.176;2023-04-06T00:38:11;7.00;;;5.07;;
7029;SDS011;3556;53.500;10.176;2023-04-06T00:40:37;6.27;;;5.43;;
7029;SDS011;3556;53.500;10.176;2023-04-06T00:43:04;5.60;;;5.10;;
7029;SDS011;3556;53.500;10.176;2023-04-06T00:45:30;6.20;;;5.63;;
7029;SDS011;3556;53.500;10.176;2023-04-06T00:47:57;5.80;;;5.40;;
7029;SDS011;3556;53.500;10.176;2023-04-06T00:50:23;10.70;;;5.47;;
7029;SDS011;3556;53.500;10.176;2023-04-06T00:52:48;5.20;;;4.90;;
7029;SDS011;3556;53.500;10.176;2023-04-06T00:55:14;8.17;;;5.30;;
7029;SDS011;3556;53.500;10.176;2023-04-06T00:57:40;5.63;;;5.20;;
7029;SDS011;3556;53.500;10.176;2023-04-06T01:00:06;5.87;;;5.37;;
7029;SDS011;3556;53.500;10.176;2023-04-06T01:02:32;5.50;;;5.10;;
7029;SDS011;3556;53.500;10.176;2023-04-06T01:04:57;6.17;;;5.70;;
7029;SDS011;3556;53.500;10.176;2023-04-06T01:07:23;5.73;;;5.30;;
7029;SDS011;3556;53.500;10.176;2023-04-06T01:09:49;5.50;;;5.00;;
7029;SDS011;3556;53.500;10.176;2023-04-06T01:12:15;10.07;;;5.73;;
7029;SDS011;3556;53.500;10.176;2023-04-06T01:14:41;6.60;;;5.90;;
7029;SDS011;3556;53.500;10.176;2023-04-06T01:17:07;5.60;;;5.10;;
7029;SDS011;3556;53.500;10.176;2023-04-06T01:19:33;5.67;;;5.17;;
7029;SDS011;3556;53.500;10.176;2023-04-06T01:21:58;5.87;;;5.40;;
7029;SDS011;3556;53.500;10.176;2023-04-06T01:24:24;5.27;;;4.97;;
7029;SDS011;3556;53.500;10.176;2023-04-06T01:26:50;5.53;;;5.10;;
7029;SDS011;3556;53.500;10.176;2023-04-06T01:29:15;5.83;;;5.37;;
7029;SDS011;3556;53.500;10.176;2023-04-06T01:31:41;6.20;;;5.43;;
7029;SDS011;3556;53.500;10.176;2023-04-06T01:34:07;5.57;;;5.13;;
7029;SDS011;3556;53.500;10.176;2023-04-06T01:36:32;9.93;;;6.30;;
7029;SDS011;3556;53.500;10.176;2023-04-06T01:38:58;6.67;;;5.77;;
7029;SDS011;3556;53.500;10.176;2023-04-06T01:41:24;5.93;;;5.43;;
7029;SDS011;3556;53.500;10.176;2023-04-06T01:43:49;13.37;;;6.37;;
7029;SDS011;3556;53.500;10.176;2023-04-06T01:46:19;6.80;;;5.97;;
7029;SDS011;3556;53.500;10.176;2023-04-06T01:48:45;7.47;;;5.73;;
7029;SDS011;3556;53.500;10.176;2023-04-06T01:51:10;6.30;;;5.80;;
7029;SDS011;3556;53.500;10.176;2023-04-06T01:53:36;6.50;;;5.67;;
7029;SDS011;3556;53.500;10.176;2023-04-06T01:56:02;6.10;;;5.47;;
7029;SDS011;3556;53.500;10.176;2023-04-06T01:58:28;8.23;;;6.00;;
7029;SDS011;3556;53.500;10.176;2023-04-06T02:00:53;8.50;;;5.83;;
7029;SDS011;3556;53.500;10.176;2023-04-06T02:03:19;7.83;;;6.30;;
7029;SDS011;3556;53.500;10.176;2023-04-06T02:05:45;6.63;;;5.90;;
7029;SDS011;3556;53.500;10.176;2023-04-06T02:08:10;7.20;;;5.90;;
7029;SDS011;3556;53.500;10.176;2023-04-06T02:10:36;6.20;;;5.70;;
7029;SDS011;3556;53.500;10.176;2023-04-06T02:13:02;6.40;;;5.77;;
7029;SDS011;3556;53.500;10.176;2023-04-06T02:15:27;6.33;;;5.73;;
7029;SDS011;3556;53.500;10.176;2023-04-06T02:17:53;6.50;;;5.93;;
7029;SDS011;3556;53.500;10.176;2023-04-06T02:20:18;6.47;;;5.87;;
7029;SDS011;3556;53.500;10.176;2023-04-06T02:22:44;7.10;;;6.37;;
7029;SDS011;3556;53.500;10.176;2023-04-06T02:25:10;6.70;;;5.87;;
7029;SDS011;3556;53.500;10.176;2023-04-06T02:27:36;7.10;;;6.40;;
7029;SDS011;3556;53.500;10.176;2023-04-06T02:30:02;7.30;;;6.57;;
7029;SDS011;3556;53.500;10.176;2023-04-06T02:32:29;6.80;;;6.10;;
7029;SDS011;3556;53.500;10.176;2023-04-06T02:34:54;6.77;;;6.10;;
7029;SDS011;3556;53.500;10.176;2023-04-06T02:37:20;8.10;;;6.50;;
7029;SDS011;3556;53.500;10.176;2023-04-06T02:39:47;9.40;;;6.57;;
7029;SDS011;3556;53.500;10.176;2023-04-06T02:42:12;7.50;;;6.80;;
7029;SDS011;3556;53.500;10.176;2023-04-06T02:44:40;8.93;;;6.60;;
7029;SDS011;3556;53.500;10.176;2023-04-06T02:47:06;11.00;;;6.40;;
7029;SDS011;3556;53.500;10.176;2023-04-06T02:49:32;7.43;;;6.80;;
7029;SDS011;3556;53.500;10.176;2023-04-06T02:51:57;6.53;;;6.03;;
7029;SDS011;3556;53.500;10.176;2023-04-06T02:54:23;13.30;;;5.90;;
7029;SDS011;3556;53.500;10.176;2023-04-06T02:56:49;7.03;;;6.43;;
7029;SDS011;3556;53.500;10.176;2023-04-06T02:59:14;7.30;;;6.50;;
7029;SDS011;3556;53.500;10.176;2023-04-06T03:01:40;10.13;;;6.80;;
7029;SDS011;3556;53.500;10.176;2023-04-06T03:04:06;10.17;;;7.40;;
7029;SDS011;3556;53.500;10.176;2023-04-06T03:06:31;9.77;;;7.37;;
7029;SDS011;3556;53.500;10.176;2023-04-06T03:08:57;9.40;;;6.77;;
7029;SDS011;3556;53.500;10.176;2023-04-06T03:11:23;6.63;;;6.00;;
7029;SDS011;3556;53.500;10.176;2023-04-06T03:13:48;6.87;;;6.17;;
7029;SDS011;3556;53.500;10.176;2023-04-06T03:16:14;12.33;;;6.73;;
7029;SDS011;3556;53.500;10.176;2023-04-06T03:18:39;11.30;;;7.67;;
7029;SDS011;3556;53.500;10.176;2023-04-06T03:21:05;9.23;;;8.17;;
7029;SDS011;3556;53.500;10.176;2023-04-06T03:23:31;17.93;;;7.97;;
7029;SDS011;3556;53.500;10.176;2023-04-06T03:25:56;10.40;;;7.80;;
7029;SDS011;3556;53.500;10.176;2023-04-06T03:28:22;14.07;;;9.20;;
7029;SDS011;3556;53.500;10.176;2023-04-06T03:30:48;14.30;;;9.20;;
7029;SDS011;3556;53.500;10.176;2023-04-06T03:33:14;11.23;;;8.83;;
7029;SDS011;3556;53.500;10.176;2023-04-06T03:35:40;9.00;;;8.10;;
7029;SDS011;3556;53.500;10.176;2023-04-06T03:38:05;14.07;;;9.17;;
7029;SDS011;3556;53.500;10.176;2023-04-06T03:40:31;15.10;;;9.17;;
7029;SDS011;3556;53.500;10.176;2023-04-06T03:42:57;12.80;;;8.97;;
7029;SDS011;3556;53.500;10.176;2023-04-06T03:45:23;11.50;;;8.80;;
7029;SDS011;3556;53.500;10.176;2023-04-06T03:47:48;12.03;;;8.10;;
7029;SDS011;3556;53.500;10.176;2023-04-06T03:50:14;8.67;;;7.87;;
7029;SDS011;3556;53.500;10.176;2023-04-06T03:52:40;15.60;;;8.17;;
7029;SDS011;3556;53.500;10.176;2023-04-06T03:55:06;10.40;;;8.23;;
7029;SDS011;3556;53.500;10.176;2023-04-06T03:57:32;12.83;;;8.37;;
7029;SDS011;3556;53.500;10.176;2023-04-06T03:59:58;13.27;;;8.37;;
7029;SDS011;3556;53.500;10.176;2023-04-06T04:02:23;11.00;;;8.47;;
7029;SDS011;3556;53.500;10.176;2023-04-06T04:04:49;11.93;;;8.27;;
7029;SDS011;3556;53.500;10.176;2023-04-06T04:07:15;9.43;;;7.47;;
7029;SDS011;3556;53.500;10.176;2023-04-06T04:09:41;10.67;;;7.83;;
7029;SDS011;3556;53.500;10.176;2023-04-06T04:12:06;9.43;;;7.57;;
7029;SDS011;3556;53.500;10.176;2023-04-06T04:14:32;9.20;;;8.27;;
7029;SDS011;3556;53.500;10.176;2023-04-06T04:16:57;11.40;;;8.10;;
7029;SDS011;3556;53.500;10.176;2023-04-06T04:19:23;10.30;;;8.50;;
7029;SDS011;3556;53.500;10.176;2023-04-06T04:21:49;9.10;;;8.30;;
7029;SDS011;3556;53.500;10.176;2023-04-06T04:24:14;13.70;;;8.80;;
7029;SDS011;3556;53.500;10.176;2023-04-06T04:26:40;18.10;;;9.30;;
7029;SDS011;3556;53.500;10.176;2023-04-06T04:29:06;9.57;;;8.10;;
7029;SDS011;3556;53.500;10.176;2023-04-06T04:31:32;11.33;;;8.47;;
7029;SDS011;3556;53.500;10.176;2023-04-06T04:33:58;11.50;;;8.57;;
7029;SDS011;3556;53.500;10.176;2023-04-06T04:36:25;11.07;;;8.17;;
7029;SDS011;3556;53.500;10.176;2023-04-06T04:38:51;14.13;;;8.97;;
7029;SDS011;3556;53.500;10.176;2023-04-06T04:41:17;10.97;;;8.70;;
7029;SDS011;3556;53.500;10.176;2023-04-06T04:43:43;9.93;;;8.47;;
7029;SDS011;3556;53.500;10.176;2023-04-06T04:46:09;11.00;;;8.93;;
7029;SDS011;3556;53.500;10.176;2023-04-06T04:48:35;23.33;;;9.70;;
7029;SDS011;3556;53.500;10.176;2023-04-06T04:51:01;10.57;;;9.13;;
7029;SDS011;3556;53.500;10.176;2023-04-06T04:53:27;12.83;;;9.70;;
7029;SDS011;3556;53.500;10.176;2023-04-06T04:55:52;21.43;;;8.77;;
7029;SDS011;3556;53.500;10.176;2023-04-06T04:58:18;10.53;;;9.30;;
7029;SDS011;3556;53.500;10.176;2023-04-06T05:00:45;13.00;;;9.83;;
7029;SDS011;3556;53.500;10.176;2023-04-06T05:03:14;26.93;;;9.23;;
7029;SDS011;3556;53.500;10.176;2023-04-06T05:05:50;16.33;;;10.27;;
7029;SDS011;3556;53.500;10.176;2023-04-06T05:08:15;13.60;;;9.37;;
7029;SDS011;3556;53.500;10.176;2023-04-06T05:10:41;13.20;;;9.80;;
7029;SDS011;3556;53.500;10.176;2023-04-06T05:13:07;14.40;;;10.17;;
7029;SDS011;3556;53.500;10.176;2023-04-06T05:15:33;20.13;;;9.70;;
7029;SDS011;3556;53.500;10.176;2023-04-06T05:18:05;16.10;;;10.37;;
7029;SDS011;3556;53.500;10.176;2023-04-06T05:20:35;17.03;;;10.13;;
7029;SDS011;3556;53.500;10.176;2023-04-06T05:23:01;17.90;;;10.17;;
7029;SDS011;3556;53.500;10.176;2023-04-06T05:25:27;17.20;;;10.50;;
7029;SDS011;3556;53.500;10.176;2023-04-06T05:27:53;20.30;;;10.30;;
7029;SDS011;3556;53.500;10.176;2023-04-06T05:30:18;14.57;;;9.80;;
7029;SDS011;3556;53.500;10.176;2023-04-06T05:32:45;20.50;;;11.13;;
7029;SDS011;3556;53.500;10.176;2023-04-06T05:35:11;16.20;;;10.83;;
7029;SDS011;3556;53.500;10.176;2023-04-06T05:37:37;15.67;;;11.20;;
7029;SDS011;3556;53.500;10.176;2023-04-06T05:40:03;28.20;;;11.83;;
7029;SDS011;3556;53.500;10.176;2023-04-06T05:42:36;14.00;;;10.97;;
7029;SDS011;3556;53.500;10.176;2023-04-06T05:45:06;26.00;;;11.60;;
7029;SDS011;3556;53.500;10.176;2023-04-06T05:47:32;20.20;;;12.03;;
7029;SDS011;3556;53.500;10.176;2023-04-06T05:49:58;20.90;;;12.57;;
7029;SDS011;3556;53.500;10.176;2023-04-06T05:52:24;20.47;;;12.50;;
7029;SDS011;3556;53.500;10.176;2023-04-06T05:54:49;17.10;;;12.40;;
7029;SDS011;3556;53.500;10.176;2023-04-06T05:57:15;23.33;;;12.80;;
7029;SDS011;3556;53.500;10.176;2023-04-06T05:59:44;24.00;;;12.13;;
7029;SDS011;3556;53.500;10.176;2023-04-06T06:02:09;24.27;;;12.23;;
7029;SDS011;3556;53.500;10.176;2023-04-06T06:04:35;20.00;;;12.13;;
7029;SDS011;3556;53.500;10.176;2023-04-06T06:07:01;19.43;;;12.33;;
7029;SDS011;3556;53.500;10.176;2023-04-06T06:09:27;23.53;;;13.83;;
7029;SDS011;3556;53.500;10.176;2023-04-06T06:11:52;19.20;;;14.93;;
7029;SDS011;3556;53.500;10.176;2023-04-06T06:14:18;23.60;;;13.53;;
7029;SDS011;3556;53.500;10.176;2023-04-06T06:16:45;18.63;;;13.23;;
7029;SDS011;3556;53.500;10.176;2023-04-06T06:19:10;22.43;;;13.97;;
7029;SDS011;3556;53.500;10.176;2023-04-06T06:21:36;18.63;;;13.47;;
7029;SDS011;3556;53.500;10.176;2023-04-06T06:24:02;19.20;;;13.07;;
7029;SDS011;3556;53.500;10.176;2023-04-06T06:26:28;23.80;;;13.27;;
7029;SDS011;3556;53.500;10.176;2023-04-06T06:28:53;17.70;;;12.27;;
7029;SDS011;3556;53.500;10.176;2023-04-06T06:31:20;18.23;;;12.93;;
7029;SDS011;3556;53.500;10.176;2023-04-06T06:33:47;17.23;;;12.70;;
7029;SDS011;3556;53.500;10.176;2023-04-06T06:36:16;17.90;;;12.47;;
7029;SDS011;3556;53.500;10.176;2023-04-06T06:38:42;14.83;;;11.80;;
7029;SDS011;3556;53.500;10.176;2023-04-06T06:41:08;19.20;;;11.70;;
7029;SDS011;3556;53.500;10.176;2023-04-06T06:43:34;21.47;;;11.57;;
7029;SDS011;3556;53.500;10.176;2023-04-06T06:45:59;14.07;;;10.17;;
7029;SDS011;3556;53.500;10.176;2023-04-06T06:48:25;14.37;;;11.27;;
7029;SDS011;3556;53.500;10.176;2023-04-06T06:50:51;17.53;;;11.17;;
7029;SDS011;3556;53.500;10.176;2023-04-06T06:53:16;19.87;;;10.90;;
7029;SDS011;3556;53.500;10.176;2023-04-06T06:55:42;13.10;;;9.87;;
7029;SDS011;3556;53.500;10.176;2023-04-06T06:58:09;13.47;;;10.23;;
7029;SDS011;3556;53.500;10.176;2023-04-06T07:00:35;13.23;;;9.20;;
7029;SDS011;3556;53.500;10.176;2023-04-06T07:03:01;10.27;;;9.23;;
7029;SDS011;3556;53.500;10.176;2023-04-06T07:05:26;12.70;;;9.43;;
7029;SDS011;3556;53.500;10.176;2023-04-06T07:07:52;12.63;;;9.53;;
7029;SDS011;3556;53.500;10.176;2023-04-06T07:10:18;11.97;;;9.27;;
7029;SDS011;3556;53.500;10.176;2023-04-06T07:12:44;12.30;;;9.40;;
7029;SDS011;3556;53.500;10.176;2023-04-06T07:15:10;14.53;;;8.30;;
7029;SDS011;3556;53.500;10.176;2023-04-06T07:17:35;12.03;;;8.53;;
7029;SDS011;3556;53.500;10.176;2023-04-06T07:20:01;12.63;;;8.17;;
7029;SDS011;3556;53.500;10.176;2023-04-06T07:22:27;12.57;;;7.90;;
7029;SDS011;3556;53.500;10.176;2023-04-06T07:24:53;10.43;;;8.30;;
7029;SDS011;3556;53.500;10.176;2023-04-06T07:27:19;8.67;;;7.60;;
7029;SDS011;3556;53.500;10.176;2023-04-06T07:29:45;16.37;;;8.80;;
7029;SDS011;3556;53.500;10.176;2023-04-06T07:32:11;8.83;;;8.03;;
7029;SDS011;3556;53.500;10.176;2023-04-06T07:34:36;11.57;;;8.00;;
7029;SDS011;3556;53.500;10.176;2023-04-06T07:37:02;17.33;;;8.67;;
7029;SDS011;3556;53.500;10.176;2023-04-06T07:39:28;10.87;;;7.47;;
7029;SDS011;3556;53.500;10.176;2023-04-06T07:41:53;8.90;;;8.10;;
7029;SDS011;3556;53.500;10.176;2023-04-06T07:44:19;13.17;;;7.50;;
7029;SDS011;3556;53.500;10.176;2023-04-06T07:46:45;8.40;;;7.60;;
7029;SDS011;3556;53.500;10.176;2023-04-06T07:49:10;7.87;;;7.30;;
7029;SDS011;3556;53.500;10.176;2023-04-06T07:51:37;8.60;;;6.37;;
7029;SDS011;3556;53.500;10.176;2023-04-06T07:54:04;6.40;;;5.90;;
7029;SDS011;3556;53.500;10.176;2023-04-06T07:56:29;7.47;;;6.70;;
7029;SDS011;3556;53.500;10.176;2023-04-06T07:58:55;7.20;;;6.57;;
7029;SDS011;3556;53.500;10.176;2023-04-06T08:01:22;7.57;;;6.87;;
7029;SDS011;3556;53.500;10.176;2023-04-06T08:03:47;6.43;;;5.57;;
7029;SDS011;3556;53.500;10.176;2023-04-06T08:06:14;8.20;;;5.97;;
7029;SDS011;3556;53.500;10.176;2023-04-06T08:08:40;6.50;;;6.00;;
7029;SDS011;3556;53.500;10.176;2023-04-06T08:11:06;6.70;;;6.00;;
7029;SDS011;3556;53.500;10.176;2023-04-06T08:13:31;6.40;;;5.80;;
7029;SDS011;3556;53.500;10.176;2023-04-06T08:15:57;7.60;;;6.10;;
7029;SDS011;3556;53.500;10.176;2023-04-06T08:18:24;5.40;;;5.10;;
7029;SDS011;3556;53.500;10.176;2023-04-06T08:20:50;6.17;;;5.57;;
7029;SDS011;3556;53.500;10.176;2023-04-06T08:23:16;8.90;;;5.73;;
7029;SDS011;3556;53.500;10.176;2023-04-06T08:25:42;6.40;;;5.90;;
7029;SDS011;3556;53.500;10.176;2023-04-06T08:28:08;6.97;;;6.20;;
7029;SDS011;3556;53.500;10.176;2023-04-06T08:30:34;7.33;;;5.17;;
7029;SDS011;3556;53.500;10.176;2023-04-06T08:33:00;9.53;;;7.27;;
7029;SDS011;3556;53.500;10.176;2023-04-06T08:35:26;8.23;;;6.80;;
7029;SDS011;3556;53.500;10.176;2023-04-06T08:37:52;6.80;;;6.20;;
7029;SDS011;3556;53.500;10.176;2023-04-06T08:40:18;7.63;;;6.97;;
7029;SDS011;3556;53.500;10.176;2023-04-06T08:42:50;6.43;;;6.03;;
7029;SDS011;3556;53.500;10.176;2023-04-06T08:45:19;7.63;;;7.10;;
7029;SDS011;3556;53.500;10.176;2023-04-06T08:47:47;7.40;;;6.70;;
7029;SDS011;3556;53.500;10.176;2023-04-06T08:50:15;6.97;;;6.47;;
7029;SDS011;3556;53.500;10.176;2023-04-06T08:52:42;6.47;;;6.07;;
7029;SDS011;3556;53.500;10.176;2023-04-06T08:55:10;9.10;;;6.57;;
7029;SDS011;3556;53.500;10.176;2023-04-06T08:57:36;9.63;;;6.73;;
7029;SDS011;3556;53.500;10.176;2023-04-06T09:00:02;6.63;;;6.27;;
7029;SDS011;3556;53.500;10.176;2023-04-06T09:02:29;8.97;;;6.43;;
7029;SDS011;3556;53.500;10.176;2023-04-06T09:04:55;6.53;;;6.17;;
7029;SDS011;3556;53.500;10.176;2023-04-06T09:07:22;6.53;;;5.93;;
7029;SDS011;3556;53.500;10.176;2023-04-06T09:09:48;7.03;;;6.53;;
7029;SDS011;3556;53.500;10.176;2023-04-06T09:12:29;6.60;;;6.03;;
7029;SDS011;3556;53.500;10.176;2023-04-06T09:14:56;6.20;;;5.80;;
7029;SDS011;3556;53.500;10.176;2023-04-06T09:17:23;5.87;;;5.40;;
7029;SDS011;3556;53.500;10.176;2023-04-06T09:19:53;6.83;;;6.07;;
7029;SDS011;3556;53.500;10.176;2023-04-06T09:22:20;7.57;;;5.90;;
7029;SDS011;3556;53.500;10.176;2023-04-06T09:24:48;5.70;;;5.40;;
7029;SDS011;3556;53.500;10.176;2023-04-06T09:27:15;6.17;;;5.47;;
7029;SDS011;3556;53.500;10.176;2023-04-06T09:29:42;6.40;;;5.83;;
7029;SDS011;3556;53.500;10.176;2023-04-06T09:32:10;6.07;;;5.47;;
7029;SDS011;3556;53.500;10.176;2023-04-06T09:34:39;5.00;;;4.60;;
7029;SDS011;3556;53.500;10.176;2023-04-06T09:37:15;5.13;;;4.73;;
7029;SDS011;3556;53.500;10.176;2023-04-06T09:39:42;5.93;;;5.53;;
7029;SDS011;3556;53.500;10.176;2023-04-06T09:42:08;5.90;;;5.37;;
7029;SDS011;3556;53.500;10.176;2023-04-06T09:44:34;12.13;;;5.17;;
7029;SDS011;3556;53.500;10.176;2023-04-06T09:47:00;4.50;;;4.30;;
7029;SDS011;3556;53.500;10.176;2023-04-06T09:49:28;5.23;;;4.93;;
7029;SDS011;3556;53.500;10.176;2023-04-06T09:51:58;4.60;;;4.43;;
7029;SDS011;3556;53.500;10.176;2023-04-06T09:54:26;4.80;;;4.40;;
7029;SDS011;3556;53.500;10.176;2023-04-06T10:02:15;3.73;;;3.50;;
7029;SDS011;3556;53.500;10.176;2023-04-06T10:04:53;4.33;;;4.13;;
7029;SDS011;3556;53.500;10.176;2023-04-06T10:07:23;5.10;;;4.70;;
7029;SDS011;3556;53.500;10.176;2023-04-06T10:09:51;5.07;;;4.50;;
7029;SDS011;3556;53.500;10.176;2023-04-06T10:12:19;5.17;;;4.77;;
7029;SDS011;3556;53.500;10.176;2023-04-06T10:14:45;5.80;;;4.93;;
7029;SDS011;3556;53.500;10.176;2023-04-06T10:17:11;4.20;;;3.80;;
7029;SDS011;3556;53.500;10.176;2023-04-06T10:19:39;5.03;;;4.80;;
7029;SDS011;3556;53.500;10.176;2023-04-06T10:25:26;6.10;;;5.57;;
7029;SDS011;3556;53.500;10.176;2023-04-06T10:27:59;4.93;;;4.70;;
7029;SDS011;3556;53.500;10.176;2023-04-06T10:30:42;4.67;;;4.47;;
7029;SDS011;3556;53.500;10.176;2023-04-06T10:33:15;6.73;;;6.13;;
7029;SDS011;3556;53.500;10.176;2023-04-06T10:35:44;5.10;;;4.70;;
7029;SDS011;3556;53.500;10.176;2023-04-06T10:38:10;7.40;;;5.77;;
7029;SDS011;3556;53.500;10.176;2023-04-06T10:40:39;6.00;;;5.20;;
7029;SDS011;3556;53.500;10.176;2023-04-06T10:43:09;6.10;;;5.70;;
7029;SDS011;3556;53.500;10.176;2023-04-06T10:45:39;6.20;;;5.80;;
7029;SDS011;3556;53.500;10.176;2023-04-06T10:48:15;6.17;;;5.77;;
7029;SDS011;3556;53.500;10.176;2023-04-06T10:50:49;6.20;;;5.80;;
7029;SDS011;3556;53.500;10.176;2023-04-06T10:55:52;8.50;;;7.03;;
7029;SDS011;3556;53.500;10.176;2023-04-06T10:58:19;6.70;;;6.27;;
7029;SDS011;3556;53.500;10.176;2023-04-06T11:00:49;10.63;;;7.00;;
7029;SDS011;3556;53.500;10.176;2023-04-06T11:03:15;7.60;;;6.70;;
7029;SDS011;3556;53.500;10.176;2023-04-06T11:05:45;6.87;;;6.47;;
7029;SDS011;3556;53.500;10.176;2023-04-06T11:10:52;8.07;;;7.33;;
7029;SDS011;3556;53.500;10.176;2023-04-06T11:13:38;7.17;;;6.73;;
7029;SDS011;3556;53.500;10.176;2023-04-06T11:16:16;7.57;;;6.97;;
7029;SDS011;3556;53.500;10.176;2023-04-06T11:18:46;8.47;;;7.67;;
7029;SDS011;3556;53.500;10.176;2023-04-06T11:21:31;8.57;;;7.77;;
7029;SDS011;3556;53.500;10.176;2023-04-06T11:26:39;8.20;;;7.50;;
7029;SDS011;3556;53.500;10.176;2023-04-06T11:29:06;7.23;;;6.77;;
7029;SDS011;3556;53.500;10.176;2023-04-06T11:31:37;8.53;;;7.83;;
7029;SDS011;3556;53.500;10.176;2023-04-06T11:34:08;8.47;;;7.77;;
7029;SDS011;3556;53.500;10.176;2023-04-06T11:36:41;8.77;;;7.77;;
7029;SDS011;3556;53.500;10.176;2023-04-06T11:39:07;9.07;;;7.57;;
7029;SDS011;3556;53.500;10.176;2023-04-06T11:41:32;8.00;;;7.33;;
7029;SDS011;3556;53.500;10.176;2023-04-06T11:44:00;8.87;;;8.07;;
7029;SDS011;3556;53.500;10.176;2023-04-06T11:46:27;8.47;;;7.77;;
7029;SDS011;3556;53.500;10.176;2023-04-06T11:48:53;8.03;;;7.33;;
7029;SDS011;3556;53.500;10.176;2023-04-06T11:51:23;7.50;;;6.90;;
7029;SDS011;3556;53.500;10.176;2023-04-06T11:53:49;8.40;;;7.60;;
7029;SDS011;3556;53.500;10.176;2023-04-06T11:56:28;7.23;;;6.63;;
7029;SDS011;3556;53.500;10.176;2023-04-06T11:58:55;7.90;;;7.37;;
7029;SDS011;3556;53.500;10.176;2023-04-06T12:01:22;7.70;;;7.20;;
7029;SDS011;3556;53.500;10.176;2023-04-06T12:03:49;8.10;;;7.40;;
7029;SDS011;3556;53.500;10.176;2023-04-06T12:06:16;7.93;;;7.43;;
7029;SDS011;3556;53.500;10.176;2023-04-06T12:08:42;8.97;;;7.87;;
7029;SDS011;3556;53.500;10.176;2023-04-06T12:11:07;8.20;;;7.57;;
7029;SDS011;3556;53.500;10.176;2023-04-06T12:13:33;7.03;;;6.73;;
7029;SDS011;3556;53.500;10.176;2023-04-06T12:15:59;7.90;;;7.40;;
7029;SDS011;3556;53.500;10.176;2023-04-06T12:18:24;8.53;;;7.90;;
7029;SDS011;3556;53.500;10.176;2023-04-06T12:20:51;9.27;;;8.57;;
7029;SDS011;3556;53.500;10.176;2023-04-06T12:23:17;9.13;;;8.33;;
7029;SDS011;3556;53.500;10.176;2023-04-06T12:25:44;8.50;;;7.83;;
7029;SDS011;3556;53.500;10.176;2023-04-06T12:28:10;10.70;;;8.07;;
7029;SDS011;3556;53.500;10.176;2023-04-06T12:30:36;7.73;;;7.23;;
7029;SDS011;3556;53.500;10.176;2023-04-06T12:33:01;8.90;;;8.20;;
7029;SDS011;3556;53.500;10.176;2023-04-06T12:35:27;8.80;;;8.10;;
7029;SDS011;3556;53.500;10.176;2023-04-06T12:37:53;9.80;;;8.80;;
7029;SDS011;3556;53.500;10.176;2023-04-06T12:40:19;9.03;;;8.33;;
7029;SDS011;3556;53.500;10.176;2023-04-06T12:42:45;8.77;;;8.00;;
7029;SDS011;3556;53.500;10.176;2023-04-06T12:45:11;8.80;;;7.90;;
7029;SDS011;3556;53.500;10.176;2023-04-06T12:47:37;8.93;;;7.43;;
7029;SDS011;3556;53.500;10.176;2023-04-06T12:50:03;11.33;;;8.30;;
7029;SDS011;3556;53.500;10.176;2023-04-06T12:52:30;9.17;;;7.90;;
7029;SDS011;3556;53.500;10.176;2023-04-06T12:54:57;8.00;;;7.20;;
7029;SDS011;3556;53.500;10.176;2023-04-06T12:57:25;7.80;;;7.20;;
7029;SDS011;3556;53.500;10.176;2023-04-06T12:59:51;8.60;;;7.77;;
7029;SDS011;3556;53.500;10.176;2023-04-06T13:02:17;7.07;;;6.63;;
7029;SDS011;3556;53.500;10.176;2023-04-06T13:04:45;8.17;;;7.70;;
7029;SDS011;3556;53.500;10.176;2023-04-06T13:07:11;7.90;;;7.20;;
7029;SDS011;3556;53.500;10.176;2023-04-06T13:09:36;7.13;;;6.83;;
7029;SDS011;3556;53.500;10.176;2023-04-06T13:12:02;7.60;;;7.20;;
7029;SDS011;3556;53.500;10.176;2023-04-06T13:14:28;8.67;;;7.93;;
7029;SDS011;3556;53.500;10.176;2023-04-06T13:16:53;8.37;;;7.77;;
7029;SDS011;3556;53.500;10.176;2023-04-06T13:19:19;7.13;;;6.63;;
7029;SDS011;3556;53.500;10.176;2023-04-06T13:21:45;9.10;;;8.40;;
7029;SDS011;3556;53.500;10.176;2023-04-06T13:24:11;15.83;;;8.63;;
7029;SDS011;3556;53.500;10.176;2023-04-06T13:26:36;9.17;;;8.47;;
7029;SDS011;3556;53.500;10.176;2023-04-06T13:29:02;9.17;;;8.47;;
7029;SDS011;3556;53.500;10.176;2023-04-06T13:31:28;8.57;;;7.70;;
7029;SDS011;3556;53.500;10.176;2023-04-06T13:33:54;14.03;;;7.57;;
7029;SDS011;3556;53.500;10.176;2023-04-06T13:36:20;7.83;;;7.40;;
7029;SDS011;3556;53.500;10.176;2023-04-06T13:38:46;8.00;;;7.40;;
7029;SDS011;3556;53.500;10.176;2023-04-06T13:41:21;8.47;;;7.73;;
7029;SDS011;3556;53.500;10.176;2023-04-06T13:43:48;9.93;;;9.17;;
7029;SDS011;3556;53.500;10.176;2023-04-06T13:46:15;9.07;;;8.40;;
7029;SDS011;3556;53.500;10.176;2023-04-06T13:48:41;9.60;;;8.90;;
7029;SDS011;3556;53.500;10.176;2023-04-06T13:51:11;8.17;;;7.57;;
7029;SDS011;3556;53.500;10.176;2023-04-06T13:53:38;8.37;;;7.83;;
7029;SDS011;3556;53.500;10.176;2023-04-06T13:56:03;9.27;;;8.47;;
7029;SDS011;3556;53.500;10.176;2023-04-06T13:58:29;8.63;;;7.97;;
7029;SDS011;3556;53.500;10.176;2023-04-06T14:01:01;8.30;;;7.80;;
7029;SDS011;3556;53.500;10.176;2023-04-06T14:03:34;8.90;;;8.10;;
7029;SDS011;3556;53.500;10.176;2023-04-06T14:06:00;10.00;;;9.07;;
7029;SDS011;3556;53.500;10.176;2023-04-06T14:08:26;9.60;;;8.90;;
7029;SDS011;3556;53.500;10.176;2023-04-06T14:10:52;9.53;;;7.90;;
7029;SDS011;3556;53.500;10.176;2023-04-06T14:13:19;8.70;;;8.20;;
7029;SDS011;3556;53.500;10.176;2023-04-06T14:15:44;8.27;;;7.80;;
7029;SDS011;3556;53.500;10.176;2023-04-06T14:18:10;8.90;;;8.03;;
7029;SDS011;3556;53.500;10.176;2023-04-06T14:20:36;9.40;;;8.70;;
7029;SDS011;3556;53.500;10.176;2023-04-06T14:23:02;9.30;;;8.50;;
7029;SDS011;3556;53.500;10.176;2023-04-06T14:25:28;9.40;;;8.60;;
7029;SDS011;3556;53.500;10.176;2023-04-06T14:27:56;9.10;;;8.50;;
7029;SDS011;3556;53.500;10.176;2023-04-06T14:30:22;8.23;;;7.73;;
7029;SDS011;3556;53.500;10.176;2023-04-06T14:32:47;8.27;;;7.80;;
7029;SDS011;3556;53.500;10.176;2023-04-06T14:35:13;9.03;;;8.43;;
7029;SDS011;3556;53.500;10.176;2023-04-06T14:37:38;7.40;;;6.90;;
7029;SDS011;3556;53.500;10.176;2023-04-06T14:40:04;8.93;;;8.23;;
7029;SDS011;3556;53.500;10.176;2023-04-06T14:42:30;7.70;;;7.20;;
7029;SDS011;3556;53.500;10.176;2023-04-06T14:44:56;9.37;;;8.67;;
7029;SDS011;3556;53.500;10.176;2023-04-06T14:47:22;10.10;;;8.53;;
7029;SDS011;3556;53.500;10.176;2023-04-06T14:49:51;9.23;;;8.43;;
7029;SDS011;3556;53.500;10.176;2023-04-06T14:52:18;8.47;;;7.77;;
7029;SDS011;3556;53.500;10.176;2023-04-06T14:54:44;11.30;;;9.23;;
7029;SDS011;3556;53.500;10.176;2023-04-06T14:57:10;8.20;;;7.60;;
7029;SDS011;3556;53.500;10.176;2023-04-06T14:59:35;8.83;;;8.10;;
7029;SDS011;3556;53.500;10.176;2023-04-06T15:02:01;8.60;;;7.87;;
7029;SDS011;3556;53.500;10.176;2023-04-06T15:04:28;8.70;;;8.10;;
7029;SDS011;3556;53.500;10.176;2023-04-06T15:06:54;8.23;;;7.67;;
7029;SDS011;3556;53.500;10.176;2023-04-06T15:09:20;7.80;;;7.30;;